createdAt,value
2016-09-11T00:00:07.769Z,62.34
2016-09-11T00:00:32.028Z,62.12
2016-09-11T00:01:54.499Z,61.38
2016-09-11T00:02:25.779Z,62.49
2016-09-11T00:02:47.513Z,62.92
2016-09-11T00:03:14.020Z,62.53
2016-09-11T00:03:40.515Z,62.22
2016-09-11T00:04:02.249Z,61.93
2016-09-11T00:04:25.145Z,61.91
2016-09-11T00:04:51.684Z,62.37
2016-09-11T00:05:13.406Z,62.15
2016-09-11T00:05:42.862Z,62.21
2016-09-11T00:06:38.541Z,61.60
2016-09-11T00:07:05.036Z,61.70
2016-09-11T00:07:31.528Z,61.61
2016-09-11T00:07:56.131Z,61.68
2016-09-11T00:08:22.659Z,61.96
2016-09-11T00:08:51.861Z,62.47
2016-09-11T00:09:18.356Z,63.43
2016-09-11T00:09:44.864Z,62.99
2016-09-11T00:10:11.398Z,63.07
2016-09-11T00:10:35.705Z,63.13
2016-09-11T00:10:58.451Z,62.49
2016-09-11T00:11:20.236Z,62.37
2016-09-11T00:11:41.973Z,62.80
2016-09-11T00:12:07.619Z,62.83
2016-09-11T00:12:34.105Z,63.68
2016-09-11T00:13:23.685Z,63.21
2016-09-11T00:13:45.398Z,63.20
2016-09-11T00:14:08.143Z,62.97
2016-09-11T00:14:31.940Z,63.48
2016-09-11T00:14:53.586Z,64.13
2016-09-11T00:15:15.369Z,64.14
2016-09-11T00:15:38.100Z,63.83
2016-09-11T00:16:01.196Z,63.52
2016-09-11T00:16:54.243Z,62.50
2016-09-11T00:17:22.785Z,62.67
2016-09-11T00:17:45.494Z,63.58
2016-09-11T00:18:12.988Z,64.14
2016-09-11T00:18:39.526Z,64.34
2016-09-11T00:19:04.421Z,64.22
2016-09-11T00:19:29.720Z,64.10
2016-09-11T00:19:53.455Z,64.05
2016-09-11T00:20:18.927Z,63.50
2016-09-11T00:20:46.446Z,63.04
2016-09-11T00:21:13.912Z,62.87
2016-09-11T00:21:35.724Z,63.08
2016-09-11T00:21:58.406Z,63.70
2016-09-11T00:22:20.115Z,64.47
2016-09-11T00:22:42.850Z,64.55
2016-09-11T00:23:05.581Z,64.83
2016-09-11T00:23:27.298Z,64.80
2016-09-11T00:23:49.050Z,64.61
2016-09-11T00:26:34.774Z,62.57
2016-09-11T00:26:56.610Z,62.46
2016-09-11T00:27:49.675Z,62.05
2016-09-11T00:28:12.399Z,61.87
2016-09-11T00:28:36.130Z,61.74
2016-09-11T00:28:58.904Z,62.12
2016-09-11T00:29:25.370Z,62.44
2016-09-11T00:29:52.914Z,62.82
2016-09-11T00:30:14.655Z,62.96
2016-09-11T00:30:37.401Z,62.84
2016-09-11T00:31:25.686Z,63.00
2016-09-11T00:32:55.213Z,63.61
2016-09-11T00:33:27.495Z,63.64
2016-09-11T00:33:50.210Z,63.18
2016-09-11T00:34:12.936Z,62.86
2016-09-11T00:34:46.196Z,62.78
2016-09-11T00:35:08.947Z,62.93
2016-09-11T00:35:30.704Z,62.99
2016-09-11T00:35:57.183Z,63.45
2016-09-11T00:36:24.683Z,63.93
2016-09-11T00:36:53.174Z,64.24
2016-09-11T00:37:19.694Z,64.56
2016-09-11T00:38:15.714Z,64.15
2016-09-11T00:39:08.883Z,63.63
2016-09-11T00:39:40.108Z,63.50
2016-09-11T00:40:09.447Z,63.62
2016-09-11T00:41:09.029Z,63.83
2016-09-11T00:41:35.525Z,63.17
2016-09-11T00:41:58.553Z,63.14
2016-09-11T00:42:30.821Z,63.65
2016-09-11T00:43:02.082Z,64.03
2016-09-11T00:43:29.580Z,63.71
2016-09-11T00:43:55.119Z,63.51
2016-09-11T00:44:17.855Z,63.59
2016-09-11T00:44:44.371Z,63.71
2016-09-11T00:45:11.947Z,63.44
2016-09-11T00:46:12.978Z,64.12
2016-09-11T00:46:40.461Z,64.84
2016-09-11T00:47:06.972Z,65.57
2016-09-11T00:47:38.072Z,66.03
2016-09-11T00:48:10.390Z,66.64
2016-09-11T00:48:32.106Z,66.53
2016-09-11T00:49:04.392Z,66.04
2016-09-11T00:50:52.301Z,64.40
2016-09-11T00:51:40.495Z,64.28
2016-09-11T00:52:06.991Z,64.82
2016-09-11T00:52:28.729Z,65.35
2016-09-11T00:53:02.822Z,64.97
2016-09-11T00:53:30.311Z,64.49
2016-09-11T00:53:57.829Z,64.57
2016-09-11T00:54:24.349Z,64.78
2016-09-11T00:54:51.547Z,64.68
2016-09-11T00:55:44.614Z,64.69
2016-09-11T00:56:11.124Z,65.15
2016-09-11T00:56:32.847Z,65.53
2016-09-11T00:57:21.103Z,66.69
2016-09-11T00:57:47.594Z,66.76
2016-09-11T00:58:16.882Z,66.66
2016-09-11T00:58:40.605Z,66.37
2016-09-11T00:59:02.336Z,66.01
2016-09-11T00:59:28.867Z,65.60
2016-09-11T00:59:53.289Z,65.09
2016-09-11T01:00:46.284Z,63.75
2016-09-11T01:01:16.489Z,63.41
2016-09-11T01:01:39.212Z,63.55
2016-09-11T01:02:05.897Z,63.53
2016-09-11T01:02:27.902Z,63.72
2016-09-11T01:02:54.498Z,63.88
2016-09-11T01:03:16.205Z,64.25
2016-09-11T01:03:43.718Z,64.51
2016-09-11T01:04:06.458Z,64.63
2016-09-11T01:04:28.194Z,64.62
2016-09-11T01:04:57.367Z,64.63
2016-09-11T01:05:19.191Z,65.25
2016-09-11T01:05:50.443Z,64.90
2016-09-11T01:06:12.177Z,65.44
2016-09-11T01:06:33.919Z,65.47
2016-09-11T01:06:55.641Z,65.08
2016-09-11T01:07:22.137Z,64.55
2016-09-11T01:07:48.630Z,64.13
2016-09-11T01:08:46.400Z,64.53
2016-09-11T01:09:08.130Z,64.70
2016-09-11T01:09:29.863Z,64.60
2016-09-11T01:09:53.603Z,64.73
2016-09-11T01:10:16.340Z,64.70
2016-09-11T01:10:41.196Z,64.13
2016-09-11T01:11:10.087Z,63.78
2016-09-11T01:11:32.704Z,63.54
2016-09-11T01:11:59.209Z,63.89
2016-09-11T01:12:56.998Z,63.92
2016-09-11T01:13:19.730Z,63.86
2016-09-11T01:14:14.733Z,63.09
2016-09-11T01:14:41.308Z,62.88
2016-09-11T01:15:09.234Z,63.82
2016-09-11T01:16:05.104Z,65.14
2016-09-11T01:16:31.596Z,65.48
2016-09-11T01:16:57.926Z,65.63
2016-09-11T01:17:19.650Z,65.58
2016-09-11T01:17:43.919Z,65.78
2016-09-11T01:18:10.409Z,65.98
2016-09-11T01:18:37.929Z,66.47
2016-09-11T01:18:59.657Z,66.07
2016-09-11T01:19:23.371Z,65.56
2016-09-11T01:19:54.451Z,65.29
2016-09-11T01:20:21.051Z,65.58
2016-09-11T01:20:47.597Z,65.74
2016-09-11T01:21:14.094Z,65.79
2016-09-11T01:21:40.584Z,65.47
2016-09-11T01:22:07.237Z,65.16
2016-09-11T01:22:29.958Z,65.35
2016-09-11T01:23:25.606Z,66.01
2016-09-11T01:23:52.114Z,66.21
2016-09-11T01:24:20.627Z,65.66
2016-09-11T01:24:43.362Z,65.69
2016-09-11T01:25:05.133Z,65.59
2016-09-11T01:26:02.802Z,65.75
2016-09-11T01:26:27.058Z,65.30
2016-09-11T01:26:51.406Z,65.18
2016-09-11T01:27:45.634Z,65.46
2016-09-11T01:28:40.262Z,64.75
2016-09-11T01:29:07.753Z,64.80
2016-09-11T01:29:36.236Z,64.47
2016-09-11T01:30:04.196Z,64.24
2016-09-11T01:30:29.706Z,64.04
2016-09-11T01:30:51.440Z,64.31
2016-09-11T01:31:18.362Z,64.08
2016-09-11T01:31:48.255Z,64.15
2016-09-11T01:32:10.975Z,64.89
2016-09-11T01:33:08.630Z,66.73
2016-09-11T01:33:37.147Z,66.65
2016-09-11T01:34:08.527Z,66.58
2016-09-11T01:34:31.246Z,66.89
2016-09-11T01:34:57.661Z,67.11
2016-09-11T01:35:26.018Z,67.53
2016-09-11T01:35:58.318Z,68.09
2016-09-11T01:36:21.058Z,67.86
2016-09-11T01:36:42.774Z,67.80
2016-09-11T01:37:06.531Z,68.01
2016-09-11T01:37:31.148Z,67.94
2016-09-11T01:37:53.883Z,67.70
2016-09-11T01:38:15.614Z,67.65
2016-09-11T01:38:38.341Z,67.98
2016-09-11T01:39:04.040Z,68.16
2016-09-11T01:40:32.652Z,67.38
2016-09-11T01:40:59.178Z,67.24
2016-09-11T01:41:52.204Z,66.40
2016-09-11T01:42:41.627Z,65.87
2016-09-11T01:43:03.375Z,65.57
2016-09-11T01:43:29.886Z,65.21
2016-09-11T01:44:19.175Z,64.68
2016-09-11T01:44:45.606Z,64.37
2016-09-11T01:45:09.360Z,64.15
2016-09-11T01:45:31.239Z,63.96
2016-09-11T01:45:57.739Z,64.58
2016-09-11T01:46:25.221Z,65.72
2016-09-11T01:46:53.439Z,66.83
2016-09-11T01:47:18.202Z,67.39
2016-09-11T01:47:44.694Z,67.04
2016-09-11T01:48:18.479Z,67.04
2016-09-11T01:48:45.075Z,66.19
2016-09-11T01:49:11.283Z,65.84
2016-09-11T01:49:37.770Z,65.56
2016-09-11T01:50:04.443Z,65.42
2016-09-11T01:51:03.873Z,66.92
2016-09-11T01:51:26.607Z,66.84
2016-09-11T01:51:50.353Z,67.36
2016-09-11T01:52:16.861Z,67.12
2016-09-11T01:52:43.350Z,67.12
2016-09-11T01:53:17.428Z,66.78
2016-09-11T01:53:43.788Z,66.81
2016-09-11T01:54:10.297Z,66.56
2016-09-11T01:54:36.815Z,66.68
2016-09-11T01:55:09.084Z,67.38
2016-09-11T01:55:35.586Z,67.76
2016-09-11T01:55:57.324Z,68.03
2016-09-11T01:56:22.064Z,67.90
2016-09-11T01:56:43.797Z,67.84
2016-09-11T01:57:15.068Z,67.64
2016-09-11T01:57:36.919Z,67.72
2016-09-11T01:58:29.929Z,66.50
2016-09-11T01:58:56.255Z,65.96
2016-09-11T01:59:22.751Z,65.35
2016-09-11T01:59:46.516Z,65.26
2016-09-11T02:00:09.231Z,65.62
2016-09-11T02:01:06.228Z,66.93
2016-09-11T02:01:33.535Z,67.25
2016-09-11T02:02:05.013Z,67.15
2016-09-11T02:02:31.683Z,67.10
2016-09-11T02:03:02.989Z,67.05
2016-09-11T02:03:27.687Z,66.41
2016-09-11T02:03:49.414Z,65.84
2016-09-11T02:04:24.432Z,65.10
2016-09-11T02:04:53.753Z,64.82
2016-09-11T02:05:43.799Z,64.89
2016-09-11T02:06:10.106Z,65.27
2016-09-11T02:06:31.923Z,65.95
2016-09-11T02:07:04.129Z,67.13
2016-09-11T02:07:27.776Z,68.09
2016-09-11T02:08:26.360Z,68.47
2016-09-11T02:08:48.110Z,68.08
2016-09-11T02:09:14.810Z,67.64
2016-09-11T02:10:03.701Z,67.22
2016-09-11T02:10:27.855Z,67.09
2016-09-11T02:10:49.613Z,66.90
2016-09-11T02:11:17.113Z,66.66
2016-09-11T02:11:39.875Z,66.27
2016-09-11T02:12:02.608Z,66.86
2016-09-11T02:12:31.741Z,67.37
2016-09-11T02:12:59.250Z,67.82
2016-09-11T02:13:23.743Z,67.84
2016-09-11T02:13:50.243Z,68.18
2016-09-11T02:14:16.550Z,68.36
2016-09-11T02:14:38.297Z,68.46
2016-09-11T02:15:04.800Z,68.50
2016-09-11T02:15:31.293Z,67.78
2016-09-11T02:15:53.036Z,67.72
2016-09-11T02:16:19.540Z,67.92
2016-09-11T02:16:42.256Z,67.86
2016-09-11T02:17:07.833Z,68.44
2016-09-11T02:17:35.340Z,68.56
2016-09-11T02:17:57.074Z,68.42
2016-09-11T02:18:24.585Z,68.42
2016-09-11T02:18:57.861Z,68.33
2016-09-11T02:19:26.879Z,68.46
2016-09-11T02:19:49.622Z,68.65
2016-09-11T02:20:14.329Z,68.45
2016-09-11T02:20:38.691Z,68.56
2016-09-11T02:21:36.484Z,69.33
2016-09-11T02:22:24.700Z,69.92
2016-09-11T02:22:47.423Z,69.91
2016-09-11T02:23:17.812Z,69.48
2016-09-11T02:23:42.118Z,69.45
2016-09-11T02:25:12.579Z,67.84
2016-09-11T02:25:35.312Z,67.37
2016-09-11T02:25:57.046Z,66.86
2016-09-11T02:26:55.136Z,66.36
2016-09-11T02:27:25.045Z,66.09
2016-09-11T02:27:46.753Z,65.50
2016-09-11T02:28:08.515Z,65.09
2016-09-11T02:28:30.467Z,65.08
2016-09-11T02:28:57.964Z,64.77
2016-09-11T02:29:24.457Z,64.89
2016-09-11T02:29:51.566Z,65.36
2016-09-11T02:30:18.048Z,66.59
2016-09-11T02:31:15.887Z,67.62
2016-09-11T02:31:42.303Z,67.82
2016-09-11T02:32:06.874Z,67.80
2016-09-11T02:32:28.601Z,67.88
2016-09-11T02:32:55.107Z,67.95
2016-09-11T02:33:17.840Z,68.01
2016-09-11T02:33:43.284Z,67.98
2016-09-11T02:34:05.393Z,67.24
2016-09-11T02:34:27.110Z,66.58
2016-09-11T02:34:48.835Z,65.97
2016-09-11T02:36:40.605Z,67.30
2016-09-11T02:37:11.494Z,67.06
2016-09-11T02:37:34.226Z,66.92
2016-09-11T02:38:00.798Z,66.50
2016-09-11T02:38:22.449Z,66.11
2016-09-11T02:38:45.202Z,66.56
2016-09-11T02:39:38.994Z,67.20
2016-09-11T02:40:03.594Z,67.07
2016-09-11T02:40:32.802Z,67.06
2016-09-11T02:40:55.529Z,67.40
2016-09-11T02:41:19.897Z,67.67
2016-09-11T02:41:41.645Z,67.94
2016-09-11T02:42:08.143Z,67.79
2016-09-11T02:42:34.463Z,67.85
2016-09-11T02:43:00.794Z,67.28
2016-09-11T02:43:22.512Z,66.63
2016-09-11T02:43:44.255Z,66.34
2016-09-11T02:44:13.586Z,65.66
2016-09-11T02:44:36.324Z,64.97
2016-09-11T02:44:59.060Z,64.75
2016-09-11T02:45:21.787Z,64.39
2016-09-11T02:45:49.328Z,64.71
2016-09-11T02:46:17.025Z,64.83
2016-09-11T02:47:10.025Z,64.73
2016-09-11T02:47:36.540Z,64.47
2016-09-11T02:47:59.717Z,64.79
2016-09-11T02:48:26.231Z,64.58
2016-09-11T02:48:52.735Z,65.07
2016-09-11T02:49:14.458Z,65.39
2016-09-11T02:49:38.176Z,66.14
2016-09-11T02:50:04.693Z,66.26
2016-09-11T02:50:33.820Z,66.36
2016-09-11T02:51:31.431Z,66.52
2016-09-11T02:52:00.495Z,66.45
2016-09-11T02:52:26.114Z,66.12
2016-09-11T02:52:55.163Z,65.46
2016-09-11T02:53:48.153Z,65.48
2016-09-11T02:54:09.891Z,65.94
2016-09-11T02:54:32.623Z,66.22
2016-09-11T02:54:55.360Z,66.13
2016-09-11T02:55:21.859Z,66.48
2016-09-11T02:56:10.092Z,66.25
2016-09-11T02:56:31.806Z,66.54
2016-09-11T02:56:54.542Z,66.59
2016-09-11T02:57:25.807Z,66.90
2016-09-11T02:57:47.539Z,66.92
2016-09-11T02:58:09.328Z,66.70
2016-09-11T02:58:35.836Z,65.78
2016-09-11T02:58:57.567Z,65.33
2016-09-11T02:59:27.014Z,64.96
2016-09-11T02:59:49.742Z,65.59
2016-09-11T03:00:17.245Z,64.80
2016-09-11T03:00:43.747Z,65.02
2016-09-11T03:01:10.445Z,64.77
2016-09-11T03:01:32.166Z,65.11
2016-09-11T03:02:03.421Z,65.72
2016-09-11T03:02:55.321Z,66.59
2016-09-11T03:03:21.817Z,67.04
2016-09-11T03:03:43.680Z,66.96
2016-09-11T03:04:07.401Z,66.71
2016-09-11T03:04:29.129Z,66.28
2016-09-11T03:04:53.478Z,66.30
2016-09-11T03:05:15.219Z,65.83
2016-09-11T03:05:36.944Z,65.51
2016-09-11T03:05:59.651Z,65.40
2016-09-11T03:06:24.342Z,65.60
2016-09-11T03:06:46.099Z,65.43
2016-09-11T03:07:12.603Z,65.34
2016-09-11T03:07:39.111Z,65.52
2016-09-11T03:08:05.597Z,65.42
2016-09-11T03:08:32.113Z,65.80
2016-09-11T03:09:25.120Z,66.12
2016-09-11T03:09:49.658Z,66.31
2016-09-11T03:11:35.689Z,65.97
2016-09-11T03:12:02.176Z,65.75
2016-09-11T03:12:23.894Z,66.16
2016-09-11T03:12:45.630Z,66.44
2016-09-11T03:13:12.141Z,66.66
2016-09-11T03:13:34.047Z,66.57
2016-09-11T03:14:03.410Z,66.66
2016-09-11T03:14:34.445Z,66.93
2016-09-11T03:15:02.058Z,66.82
2016-09-11T03:15:28.447Z,66.82
2016-09-11T03:15:59.340Z,66.88
2016-09-11T03:16:30.650Z,67.18
2016-09-11T03:16:55.216Z,67.56
2016-09-11T03:17:17.078Z,67.60
2016-09-11T03:17:43.567Z,67.22
2016-09-11T03:18:05.303Z,66.95
2016-09-11T03:18:27.026Z,67.24
2016-09-11T03:19:20.036Z,67.15
2016-09-11T03:19:41.774Z,67.01
2016-09-11T03:20:32.839Z,67.02
2016-09-11T03:20:59.344Z,67.02
2016-09-11T03:21:21.065Z,66.67
2016-09-11T03:21:42.795Z,66.17
2016-09-11T03:22:08.026Z,65.61
2016-09-11T03:22:34.518Z,65.24
2016-09-11T03:23:01.028Z,65.54
2016-09-11T03:23:32.298Z,65.58
2016-09-11T03:23:54.023Z,65.90
2016-09-11T03:24:49.677Z,66.53
2016-09-11T03:25:11.395Z,66.95
2016-09-11T03:25:36.995Z,66.56
2016-09-11T03:26:03.533Z,66.29
2016-09-11T03:26:34.764Z,66.02
2016-09-11T03:27:07.535Z,65.29
2016-09-11T03:27:30.274Z,65.12
2016-09-11T03:27:54.010Z,64.83
2016-09-11T03:28:50.860Z,65.39
2016-09-11T03:29:15.338Z,66.01
2016-09-11T03:29:41.840Z,66.38
2016-09-11T03:30:47.924Z,66.51
2016-09-11T03:31:14.413Z,66.35
2016-09-11T03:32:05.526Z,66.67
2016-09-11T03:32:32.028Z,66.75
2016-09-11T03:33:05.850Z,66.63
2016-09-11T03:33:42.893Z,66.24
2016-09-11T03:34:07.583Z,66.14
2016-09-11T03:34:34.090Z,65.90
2016-09-11T03:35:31.266Z,65.36
2016-09-11T03:35:55.503Z,65.27
2016-09-11T03:36:24.581Z,65.34
2016-09-11T03:36:47.294Z,65.69
2016-09-11T03:37:11.417Z,66.25
2016-09-11T03:37:34.073Z,66.30
2016-09-11T03:38:01.575Z,67.08
2016-09-11T03:38:23.324Z,67.18
2016-09-11T03:38:45.050Z,67.25
2016-09-11T03:39:06.761Z,67.47
2016-09-11T03:39:36.083Z,67.82
2016-09-11T03:39:58.829Z,67.71
2016-09-11T03:40:26.368Z,68.03
2016-09-11T03:40:49.193Z,68.30
2016-09-11T03:41:37.393Z,68.24
2016-09-11T03:42:58.915Z,68.08
2016-09-11T03:43:27.952Z,68.08
2016-09-11T03:43:54.454Z,67.42
2016-09-11T03:44:20.962Z,67.34
2016-09-11T03:44:43.694Z,67.45
2016-09-11T03:45:05.437Z,66.75
2016-09-11T03:45:27.146Z,66.53
2016-09-11T03:45:53.648Z,67.29
2016-09-11T03:46:29.687Z,67.15
2016-09-11T03:46:57.734Z,67.60
2016-09-11T03:47:20.454Z,67.36
2016-09-11T03:47:44.801Z,67.50
2016-09-11T03:48:37.800Z,68.06
2016-09-11T03:49:30.816Z,68.41
2016-09-11T03:49:52.540Z,68.11
2016-09-11T03:50:20.048Z,68.56
2016-09-11T03:50:44.710Z,68.45
2016-09-11T03:51:37.718Z,68.04
2016-09-11T03:52:03.346Z,67.88
2016-09-11T03:52:34.612Z,67.24
2016-09-11T03:53:06.503Z,67.45
2016-09-11T03:53:32.989Z,66.86
2016-09-11T03:54:23.788Z,66.14
2016-09-11T03:54:49.477Z,65.53
2016-09-11T03:55:11.203Z,65.36
2016-09-11T03:55:33.939Z,65.82
2016-09-11T03:55:56.685Z,66.34
2016-09-11T03:56:23.185Z,66.43
2016-09-11T03:56:44.896Z,65.96
2016-09-11T03:57:09.490Z,65.74
2016-09-11T03:57:35.798Z,65.51
2016-09-11T03:57:58.531Z,65.71
2016-09-11T03:58:22.287Z,66.30
2016-09-11T03:58:47.859Z,65.97
2016-09-11T03:59:09.798Z,66.17
2016-09-11T04:00:01.244Z,66.27
2016-09-11T04:00:25.625Z,66.48
2016-09-11T04:00:47.376Z,66.77
2016-09-11T04:01:23.213Z,66.91
2016-09-11T04:02:20.998Z,67.73
2016-09-11T04:02:47.494Z,67.67
2016-09-11T04:04:04.753Z,67.47
2016-09-11T04:04:31.222Z,67.24
2016-09-11T04:05:26.759Z,67.11
2016-09-11T04:06:29.115Z,66.65
2016-09-11T04:07:24.906Z,66.53
2016-09-11T04:07:50.583Z,65.95
2016-09-11T04:08:17.055Z,65.86
2016-09-11T04:08:38.790Z,65.53
2016-09-11T04:09:01.536Z,65.59
2016-09-11T04:09:23.270Z,65.55
2016-09-11T04:09:49.754Z,65.73
2016-09-11T04:10:12.742Z,65.46
2016-09-11T04:10:44.016Z,65.10
2016-09-11T04:11:05.757Z,65.32
2016-09-11T04:11:33.613Z,65.56
2016-09-11T04:12:26.249Z,66.39
2016-09-11T04:12:53.778Z,66.57
2016-09-11T04:13:16.551Z,66.66
2016-09-11T04:13:43.370Z,66.68
2016-09-11T04:14:08.954Z,67.22
2016-09-11T04:14:31.705Z,67.61
2016-09-11T04:14:54.547Z,67.42
2016-09-11T04:15:17.424Z,67.08
2016-09-11T04:15:40.125Z,66.71
2016-09-11T04:16:01.959Z,66.57
2016-09-11T04:16:26.233Z,66.71
2016-09-11T04:16:47.965Z,66.93
2016-09-11T04:17:12.314Z,66.75
2016-09-11T04:17:35.046Z,66.66
2016-09-11T04:17:56.802Z,66.75
2016-09-11T04:18:21.374Z,66.96
2016-09-11T04:18:45.702Z,67.21
2016-09-11T04:19:07.480Z,67.17
2016-09-11T04:19:33.951Z,67.10
2016-09-11T04:19:56.675Z,67.43
2016-09-11T04:20:22.041Z,67.31
2016-09-11T04:20:46.336Z,67.56
2016-09-11T04:21:12.863Z,67.99
2016-09-11T04:21:37.540Z,68.16
2016-09-11T04:21:59.286Z,68.20
2016-09-11T04:22:28.729Z,68.20
2016-09-11T04:22:50.493Z,68.23
2016-09-11T04:23:17.382Z,68.32
2016-09-11T04:23:39.117Z,68.38
2016-09-11T04:24:01.845Z,68.26
2016-09-11T04:25:08.107Z,68.21
2016-09-11T04:25:33.600Z,68.49
2016-09-11T04:27:02.593Z,68.52
2016-09-11T04:28:01.362Z,68.75
2016-09-11T04:28:57.071Z,68.77
2016-09-11T04:29:21.622Z,68.80
2016-09-11T04:29:45.865Z,68.72
2016-09-11T04:30:44.444Z,68.79
2016-09-11T04:32:04.976Z,67.92
2016-09-11T04:32:58.972Z,67.92
2016-09-11T04:33:21.699Z,68.09
2016-09-11T04:33:43.437Z,67.80
2016-09-11T04:34:09.971Z,67.56
2016-09-11T04:35:07.737Z,66.65
2016-09-11T04:35:36.234Z,66.74
2016-09-11T04:36:33.772Z,66.73
2016-09-11T04:36:56.506Z,66.29
2016-09-11T04:37:19.239Z,66.04
2016-09-11T04:37:43.814Z,65.79
2016-09-11T04:38:21.129Z,65.88
2016-09-11T04:39:12.941Z,65.91
2016-09-11T04:39:37.225Z,66.05
2016-09-11T04:40:33.946Z,66.25
2016-09-11T04:40:56.685Z,66.35
2016-09-11T04:41:18.403Z,66.31
2016-09-11T04:41:44.908Z,65.83
2016-09-11T04:42:17.878Z,65.50
2016-09-11T04:42:47.210Z,65.80
2016-09-11T04:43:45.853Z,66.45
2016-09-11T04:44:12.170Z,67.07
2016-09-11T04:44:48.198Z,67.62
2016-09-11T04:46:04.720Z,67.75
2016-09-11T04:46:33.961Z,67.80
2016-09-11T04:47:29.811Z,67.44
2016-09-11T04:47:56.310Z,68.03
2016-09-11T04:48:21.856Z,68.23
2016-09-11T04:48:51.260Z,68.30
2016-09-11T04:49:17.770Z,68.27
2016-09-11T04:49:45.278Z,68.26
2016-09-11T04:50:07.027Z,68.41
2016-09-11T04:50:29.753Z,67.98
2016-09-11T04:50:51.478Z,67.57
2016-09-11T04:51:15.847Z,67.51
2016-09-11T04:51:40.547Z,67.07
2016-09-11T04:52:03.268Z,66.80
2016-09-11T04:52:55.270Z,66.72
2016-09-11T04:53:21.770Z,66.88
2016-09-11T04:53:48.851Z,66.77
2016-09-11T04:54:15.351Z,67.05
2016-09-11T04:55:03.402Z,68.50
2016-09-11T04:55:27.677Z,69.13
2016-09-11T04:55:49.424Z,69.39
2016-09-11T04:56:14.154Z,69.92
2016-09-11T04:57:02.371Z,70.02
2016-09-11T04:57:28.861Z,69.99
2016-09-11T04:58:24.828Z,69.08
2016-09-11T04:58:46.550Z,68.70
2016-09-11T04:59:11.257Z,68.17
2016-09-11T04:59:33.981Z,68.26
2016-09-11T04:59:55.699Z,67.78
2016-09-11T05:00:17.446Z,67.71
2016-09-11T05:00:40.195Z,67.59
2016-09-11T05:01:01.947Z,67.33
2016-09-11T05:01:28.445Z,67.55
2016-09-11T05:01:50.170Z,67.21
2016-09-11T05:02:11.936Z,67.76
2016-09-11T05:02:33.650Z,68.28
2016-09-11T05:02:55.385Z,68.36
2016-09-11T05:03:22.080Z,68.84
2016-09-11T05:03:43.804Z,68.65
2016-09-11T05:04:05.533Z,68.73
2016-09-11T05:04:28.269Z,68.68
2016-09-11T05:05:16.490Z,68.42
2016-09-11T05:05:42.994Z,68.32
2016-09-11T05:06:05.709Z,68.47
2016-09-11T05:06:27.446Z,68.82
2016-09-11T05:06:49.168Z,68.85
2016-09-11T05:07:13.866Z,68.96
2016-09-11T05:07:35.594Z,68.80
2016-09-11T05:07:57.315Z,68.46
2016-09-11T05:08:22.902Z,68.21
2016-09-11T05:09:11.130Z,69.31
2016-09-11T05:09:41.584Z,69.73
2016-09-11T05:10:03.335Z,69.86
2016-09-11T05:10:25.087Z,69.89
2016-09-11T05:10:51.584Z,69.96
2016-09-11T05:11:13.300Z,69.92
2016-09-11T05:11:36.029Z,69.59
2016-09-11T05:11:57.753Z,69.11
2016-09-11T05:12:25.279Z,68.47
2016-09-11T05:13:13.514Z,67.76
2016-09-11T05:13:35.254Z,67.24
2016-09-11T05:14:01.744Z,67.33
2016-09-11T05:14:23.488Z,67.33
2016-09-11T05:14:45.224Z,67.79
2016-09-11T05:15:06.956Z,67.77
2016-09-11T05:15:28.681Z,67.92
2016-09-11T05:16:00.976Z,67.65
2016-09-11T05:16:53.993Z,68.05
2016-09-11T05:17:15.714Z,68.29
2016-09-11T05:17:37.463Z,68.55
2016-09-11T05:17:59.226Z,69.17
2016-09-11T05:18:20.969Z,69.63
2016-09-11T05:19:13.965Z,70.21
2016-09-11T05:19:40.470Z,70.06
2016-09-11T05:20:02.198Z,69.60
2016-09-11T05:20:23.936Z,69.29
2016-09-11T05:20:46.665Z,69.24
2016-09-11T05:21:08.410Z,68.98
2016-09-11T05:21:30.134Z,69.44
2016-09-11T05:21:51.868Z,69.08
2016-09-11T05:22:13.596Z,68.83
2016-09-11T05:22:37.949Z,68.61
2016-09-11T05:23:00.689Z,68.32
2016-09-11T05:23:32.956Z,68.33
2016-09-11T05:23:55.696Z,68.15
2016-09-11T05:24:18.416Z,68.33
2016-09-11T05:24:40.151Z,68.80
2016-09-11T05:25:01.888Z,69.40
2016-09-11T05:25:55.892Z,70.83
2016-09-11T05:26:17.638Z,70.51
2016-09-11T05:27:06.864Z,70.51
2016-09-11T05:27:33.376Z,69.80
2016-09-11T05:28:04.646Z,69.10
2016-09-11T05:28:26.378Z,68.84
2016-09-11T05:28:48.105Z,68.99
2016-09-11T05:29:10.023Z,69.16
2016-09-11T05:29:36.521Z,69.19
2016-09-11T05:30:00.704Z,69.03
2016-09-11T05:30:22.441Z,68.63
2016-09-11T05:30:48.934Z,68.53
2016-09-11T05:31:20.225Z,68.33
2016-09-11T05:31:42.147Z,68.38
2016-09-11T05:32:30.390Z,68.63
2016-09-11T05:32:52.122Z,68.59
2016-09-11T05:33:13.850Z,69.00
2016-09-11T05:33:36.579Z,68.68
2016-09-11T05:33:58.297Z,69.04
2016-09-11T05:34:20.035Z,69.35
2016-09-11T05:34:41.792Z,69.35
2016-09-11T05:35:03.497Z,69.31
2016-09-11T05:35:25.235Z,69.28
2016-09-11T05:35:46.992Z,69.14
2016-09-11T05:36:08.742Z,68.99
2016-09-11T05:36:30.540Z,68.84
2016-09-11T05:36:56.393Z,68.63
2016-09-11T05:37:19.125Z,69.13
2016-09-11T05:37:40.855Z,69.50
2016-09-11T05:38:03.699Z,69.27
2016-09-11T05:38:25.430Z,68.85
2016-09-11T05:38:47.158Z,68.78
2016-09-11T05:39:14.659Z,69.01
2016-09-11T05:39:36.381Z,68.93
2016-09-11T05:39:58.099Z,69.17
2016-09-11T05:40:24.601Z,70.11
2016-09-11T05:40:46.320Z,70.52
2016-09-11T05:41:09.104Z,70.60
2016-09-11T05:41:31.837Z,70.87
2016-09-11T05:41:53.661Z,70.75
2016-09-11T05:42:15.392Z,70.84
2016-09-11T05:43:03.735Z,70.35
2016-09-11T05:43:25.472Z,69.80
2016-09-11T05:43:47.216Z,69.86
2016-09-11T05:44:08.950Z,69.59
2016-09-11T05:44:30.704Z,69.85
2016-09-11T05:44:52.424Z,69.64
2016-09-11T05:45:18.922Z,69.93
2016-09-11T05:45:41.657Z,69.69
2016-09-11T05:46:09.149Z,69.23
2016-09-11T05:46:30.899Z,69.24
2016-09-11T05:46:52.697Z,68.75
2016-09-11T05:47:14.471Z,68.26
2016-09-11T05:47:38.787Z,68.33
2016-09-11T05:48:05.274Z,68.59
2016-09-11T05:48:27.007Z,68.52
2016-09-11T05:48:48.719Z,68.82
2016-09-11T05:49:13.152Z,69.53
2016-09-11T05:49:34.889Z,70.24
2016-09-11T05:49:56.615Z,70.73
2016-09-11T05:50:44.844Z,71.45
2016-09-11T05:51:11.341Z,71.54
2016-09-11T05:51:33.072Z,71.50
2016-09-11T05:52:21.303Z,71.47
2016-09-11T05:52:43.049Z,71.42
2016-09-11T05:53:04.868Z,71.16
2016-09-11T05:53:31.367Z,70.63
2016-09-11T05:54:20.590Z,69.62
2016-09-11T05:54:42.319Z,68.97
2016-09-11T05:55:08.826Z,68.23
2016-09-11T05:55:30.593Z,68.01
2016-09-11T05:55:52.317Z,67.90
2016-09-11T05:56:18.839Z,67.84
2016-09-11T05:56:45.360Z,68.00
2016-09-11T05:57:19.255Z,67.79
2016-09-11T05:57:45.769Z,68.73
2016-09-11T05:58:37.715Z,69.31
2016-09-11T05:59:00.532Z,69.31
2016-09-11T05:59:23.268Z,69.74
2016-09-11T06:00:13.546Z,69.75
2016-09-11T06:00:40.045Z,70.26
2016-09-11T06:01:01.786Z,70.45
2016-09-11T06:01:24.509Z,70.41
2016-09-11T06:01:46.397Z,70.81
2016-09-11T06:02:37.119Z,70.68
2016-09-11T06:02:59.853Z,70.21
2016-09-11T06:03:23.594Z,69.60
2016-09-11T06:03:47.350Z,69.13
2016-09-11T06:04:09.075Z,68.82
2016-09-11T06:04:30.803Z,68.80
2016-09-11T06:04:55.533Z,68.71
2016-09-11T06:05:17.402Z,68.39
2016-09-11T06:06:05.629Z,68.16
2016-09-11T06:06:58.634Z,67.92
2016-09-11T06:07:21.367Z,67.88
2016-09-11T06:07:43.248Z,67.75
2016-09-11T06:08:06.141Z,67.69
2016-09-11T06:08:32.637Z,67.29
2016-09-11T06:09:25.773Z,67.89
2016-09-11T06:09:47.499Z,67.47
2016-09-11T06:10:09.225Z,68.40
2016-09-11T06:10:30.947Z,67.61
2016-09-11T06:10:57.475Z,67.52
2016-09-11T06:11:23.017Z,67.48
2016-09-11T06:11:44.753Z,67.69
2016-09-11T06:12:06.558Z,67.88
2016-09-11T06:12:28.454Z,68.68
2016-09-11T06:12:50.224Z,69.16
2016-09-11T06:13:11.953Z,69.48
2016-09-11T06:13:41.056Z,69.25
2016-09-11T06:14:02.826Z,69.20
2016-09-11T06:14:24.557Z,69.02
2016-09-11T06:14:46.307Z,68.78
2016-09-11T06:15:08.078Z,68.77
2016-09-11T06:15:29.808Z,68.77
2016-09-11T06:15:51.581Z,68.54
2016-09-11T06:16:13.303Z,68.13
2016-09-11T06:16:35.074Z,67.76
2016-09-11T06:17:01.568Z,67.44
2016-09-11T06:17:24.406Z,67.52
2016-09-11T06:17:46.104Z,67.40
2016-09-11T06:18:09.248Z,67.67
2016-09-11T06:18:31.969Z,67.50
2016-09-11T06:18:58.474Z,67.39
2016-09-11T06:19:25.082Z,67.50
2016-09-11T06:19:51.492Z,67.72